• Join FlightAware (Why Join?)
  • Login
  • US Flag 
08:40PM EDT


 

Airport Tracker/Info


-or-


 

Live Flight TrackerFlight Track Log ✈ N250S ✈ 01-Nov-2013 ✈ KMLS - KCOE

Flight Track Log - Related Links

Times and Time Zones

All times are in EDT time to prevent confusion due to time zone crossing. See the N250S flight status page for this flight to view local times or setup timezone preferences in your user account.

Time Position Orientation Groundspeed Altitude Reporting Facility
EDT Latitude Longitude Course Direction KTS MPH feet Rate Location/Type
04:18PM 46.5147 -106.9414 270° West 178 205 16,200  Level Salt Lake Center
04:19PM 46.5175 -107.0072 274° West 172 198 16,300 420 Climbing Salt Lake Center
04:20PM 46.5228 -107.0814 276° West 163 188 17,100 780 Climbing Salt Lake Center
04:21PM 46.5253 -107.1539 273° West 168 193 18,000 840 Climbing Salt Lake Center
04:22PM 46.5264 -107.2164 272° West 161 185 18,900 900 Climbing Salt Lake Center
04:23PM 46.5219 -107.2800 264° West 159 183 19,900 480 Climbing Salt Lake Center
04:24PM 46.4896 -106.2424 270° West  Level Estimated
04:25PM 46.5119 -107.3444 257° West 163 188 20,000  Level Salt Lake Center
04:26PM 46.5222 -107.3978 286° West 137 158 20,000  Level Salt Lake Center
04:27PM 46.5278 -107.4564 278° West 145 167 20,000 -480 Level Salt Lake Center
04:28PM 46.5264 -107.5300 268° West 155 178 19,100 -660 Descending Salt Lake Center
04:29PM 46.5306 -107.6108 274° West 183 211 18,700 -360 Descending Salt Lake Center
04:30PM 46.5381 -107.6772 279° West 171 197 18,400 -480 Descending Salt Lake Center
04:31PM 46.5542 -107.7503 288° West 175 201 17,800 -480 Descending Salt Lake Center
04:32PM 46.5694 -107.8203 288° West 182 209 17,500 -480 Descending Salt Lake Center
04:33PM 46.5825 -107.8972 284° West 183 211 16,900 -420 Descending Salt Lake Center
04:34PM 46.5944 -107.9692 284° West 185 213 16,700 -300 Descending Salt Lake Center
04:35PM 46.6064 -108.0461 283° West 185 213 16,300 -240 Descending Salt Lake Center
04:36PM 46.6189 -108.1153 285° West 180 207 16,300  Level Salt Lake Center
04:37PM 46.6308 -108.1858 284° West 170 196 16,300  Level Salt Lake Center
04:38PM 46.6419 -108.2531 284° West 172 198 16,300  Level Salt Lake Center
04:39PM 46.6531 -108.3275 282° West 175 201 16,300  Level Salt Lake Center
04:40PM 46.6625 -108.3939 282° West 172 198 16,300  Level Salt Lake Center
04:41PM 46.6733 -108.4644 283° West 168 193 16,300  Level Salt Lake Center
04:42PM 46.6836 -108.5331 282° West 176 203 16,300 -60 Level Salt Lake Center
04:43PM 46.6972 -108.6031 286° West 177 204 16,200 -180 Descending Salt Lake Center
04:44PM 46.7097 -108.6706 285° West 177 204 16,000 -120 Descending Salt Lake Center
04:45PM 46.7231 -108.7361 287° West 174 200 16,000  Level Salt Lake Center
04:46PM 46.7356 -108.7994 286° West 170 196 16,000  Level Salt Lake Center
04:47PM 46.7511 -108.8750 287° West 167 192 16,000  Level Salt Lake Center
04:48PM 46.7639 -108.9408 286° West 167 192 16,000  Level Salt Lake Center
04:49PM 46.7772 -109.0072 286° West 168 193 16,000  Level Salt Lake Center
04:50PM 46.7900 -109.0739 286° West 169 194 16,000  Level Salt Lake Center
04:51PM 46.8028 -109.1406 286° West 170 196 16,000  Level Salt Lake Center
04:52PM 46.8139 -109.2097 283° West 172 198 16,000  Level Salt Lake Center
04:53PM 46.8239 -109.2758 282° West 170 196 16,000  Level Salt Lake Center
04:54PM 46.8342 -109.3456 282° West 169 194 16,000  Level Salt Lake Center
04:55PM 46.8461 -109.4094 285° West 166 191 16,000  Level Salt Lake Center
04:56PM 46.8611 -109.4850 286° West 163 188 16,000  Level Salt Lake Center
04:57PM 46.8747 -109.5483 287° West 163 188 16,000  Level Salt Lake Center
04:58PM 46.8861 -109.6108 285° West 160 184 16,000  Level Salt Lake Center
05:00PM 46.8958 -109.6761 282° West 163 188 16,000  Level Salt Lake Center
05:01PM 46.9033 -109.7428 279° West 165 190 16,000  Level Salt Lake Center
05:02PM 46.9139 -109.8100 283° West 169 194 16,000  Level Salt Lake Center
05:03PM 46.9228 -109.8789 281° West 171 197 16,000  Level Salt Lake Center
05:04PM 46.9344 -109.9433 285° West 168 193 16,000  Level Salt Lake Center
05:05PM 46.9472 -110.0211 284° West 166 191 16,000  Level Salt Lake Center
05:06PM 46.9583 -110.0847 284° West 163 188 16,000  Level Salt Lake Center
05:07PM 46.9686 -110.1511 283° West 166 191 16,000  Level Salt Lake Center
05:08PM 46.9803 -110.2133 285° West 163 188 16,000 -60 Level Salt Lake Center
05:09PM 46.9922 -110.2758 286° West 160 184 15,900 -420 Descending Salt Lake Center
05:10PM 47.0033 -110.3472 283° West 172 198 15,200 -780 Descending Salt Lake Center
05:11PM 47.0167 -110.4211 285° West 183 211 14,400 -600 Descending Salt Lake Center
05:12PM 47.0300 -110.5069 283° West 183 211 14,000 -240 Descending Salt Lake Center
05:13PM 47.0447 -110.5739 288° West 179 206 14,000  Level Salt Lake Center
05:14PM 47.0581 -110.6364 287° West 172 198 14,000  Level Salt Lake Center
05:15PM 47.0661 -110.6992 281° West 163 188 14,000  Level Salt Lake Center
05:16PM 47.0753 -110.7628 282° West 160 184 14,100  Climbing Salt Lake Center
05:17PM 47.0853 -110.8300 282° West 163 188 14,000 -60 Descending Salt Lake Center
05:18PM 47.0967 -110.8964 284° West 166 191 14,000  Level Salt Lake Center
05:19PM 47.1097 -110.9747 284° West 166 191 14,000  Level Salt Lake Center
05:20PM 47.1192 -111.0428 282° West 167 192 14,000  Level Salt Lake Center
05:21PM 47.1306 -111.1103 284° West 169 194 14,000  Level Salt Lake Center
05:22PM 47.1431 -111.1733 286° West 166 191 14,000  Level Salt Lake Center
05:23PM 47.1539 -111.2392 284° West 165 190 14,000  Level Salt Lake Center
05:24PM 47.1644 -111.3083 283° West 168 193 14,000  Level Salt Lake Center
05:25PM 47.1733 -111.3783 281° West 171 197 14,000  Level Salt Lake Center
05:26PM 47.1858 -111.4583 283° West 170 196 14,000  Level Salt Lake Center
05:27PM 47.1950 -111.5278 281° West 171 197 14,000  Level Salt Lake Center
05:28PM 47.2042 -111.5978 281° West 172 198 14,000  Level Salt Lake Center
05:29PM 47.2147 -111.6664 283° West 172 198 14,000  Level Salt Lake Center
05:30PM 47.2247 -111.7347 282° West 172 198 14,000  Level Salt Lake Center
05:31PM 47.2333 -111.8050 280° West 173 199 14,100  Climbing Salt Lake Center
05:32PM 47.2417 -111.8739 280° West 172 198 14,000 -60 Descending Salt Lake Center
05:33PM 47.2544 -111.9561 283° West 172 198 14,000  Level Salt Lake Center
05:35PM 47.2658 -112.0239 284° West 171 197 14,000  Level Salt Lake Center
05:36PM 47.2753 -112.0892 282° West 169 194 14,100  Climbing Salt Lake Center
05:37PM 47.2819 -112.1583 278° West 168 193 14,000 -60 Descending Salt Lake Center
05:38PM 47.2908 -112.2283 281° West 171 197 14,000  Level Salt Lake Center
05:39PM 47.2997 -112.2986 281° West 173 199 14,100  Climbing Salt Lake Center
05:40PM 47.3086 -112.3686 281° West 174 200 14,000 -60 Descending Salt Lake Center
05:41PM 47.3219 -112.4589 282° West 182 209 14,000  Level Salt Lake Center
05:42PM 47.3350 -112.5322 285° West 185 213 14,000  Level Salt Lake Center
05:43PM 47.3467 -112.6056 283° West 185 213 14,000  Level Salt Lake Center
05:44PM 47.3589 -112.6747 285° West 181 208 14,000  Level Salt Lake Center
05:45PM 47.3667 -112.7408 280° West 174 200 14,000  Level Salt Lake Center
05:46PM 47.3714 -112.8056 276° West 167 192 14,000  Level Salt Lake Center
05:47PM 47.3806 -112.8817 280° West 161 185 14,100 60 Climbing Salt Lake Center
05:48PM 47.3908 -112.9431 284° West 157 181 14,200  Climbing Salt Lake Center
05:49PM 47.4003 -113.0044 283° West 155 178 14,200  Level Salt Lake Center
05:50PM 47.4092 -113.0658 282° West 154 177 14,200  Level Salt Lake Center
05:51PM 47.4156 -113.1308 278° West 156 180 14,200  Level Salt Lake Center
05:52PM 47.4228 -113.1958 279° West 158 182 14,200  Level Salt Lake Center
05:53PM 47.4308 -113.2608 280° West 160 184 14,200  Level Salt Lake Center
05:54PM 47.4378 -113.3406 277° West 161 185 14,200  Level Salt Lake Center
05:55PM 47.4447 -113.4064 279° West 162 186 14,200 -60 Level Salt Lake Center
05:56PM 47.4528 -113.4744 280° West 165 190 14,100 -60 Descending Salt Lake Center
05:57PM 47.4600 -113.5394 279° West 164 189 14,100  Level Salt Lake Center
05:58PM 47.4667 -113.6033 279° West 161 185 14,100 -60 Level Salt Lake Center
05:59PM 47.4736 -113.6678 279° West 160 184 14,000 -60 Descending Salt Lake Center
06:00PM 47.4808 -113.7339 279° West 161 185 14,000  Level Salt Lake Center
06:01PM 47.4903 -113.8147 280° West 163 188 14,000  Level Salt Lake Center
06:02PM 47.4992 -113.8811 281° West 165 190 14,000  Level Salt Lake Center
06:03PM 47.5067 -113.9472 280° West 165 190 14,000  Level Salt Lake Center
06:04PM 47.5156 -114.0106 282° West 161 185 14,000  Level Salt Lake Center
06:05PM 47.5236 -114.0772 280° West 161 185 14,000  Level Salt Lake Center
06:06PM 47.5325 -114.1444 281° West 165 190 14,000  Level Salt Lake Center
06:08PM 47.5400 -114.2114 279° West 165 190 14,000  Level Salt Lake Center
06:09PM 47.5494 -114.2936 280° West 167 192 14,000  Level Salt Lake Center
06:10PM 47.5578 -114.3606 280° West 166 191 14,000  Level Salt Lake Center
06:11PM 47.5644 -114.4286 278° West 166 191 14,000  Level Salt Lake Center
06:12PM 47.5731 -114.4964 281° West 167 192 14,000  Level Seattle Center
06:13PM 47.5803 -114.5619 279° West 163 188 14,000  Level Seattle Center
06:14PM 47.5861 -114.6311 277° West 167 192 14,000  Level Salt Lake Center
06:15PM 47.5931 -114.7000 279° West 168 193 14,000  Level Salt Lake Center
06:16PM 47.5994 -114.7667 278° West 165 190 14,000  Level Salt Lake Center
06:17PM 47.6053 -114.8353 277° West 166 191 14,000  Level Salt Lake Center
06:18PM 47.6125 -114.9025 279° West 166 191 14,000  Level Seattle Center
06:19PM 47.6197 -114.9717 279° West 168 193 14,000  Level Seattle Center
06:20PM 47.6261 -115.0394 278° West 167 192 14,000  Level Seattle Center
06:21PM 47.6325 -115.1089 278° West 170 196 14,000  Level Seattle Center
06:22PM 47.6400 -115.1769 279° West 168 193 14,000  Level Seattle Center
06:23PM 47.6475 -115.2461 279° West 170 196 14,000  Level Seattle Center
06:24PM 47.6553 -115.3294 278° West 170 196 14,000 -360 Level Seattle Center
06:25PM 47.6608 -115.4017 277° West 175 201 13,300 -600 Descending Seattle Center
06:26PM 47.6753 -115.4769 286° West 186 214 12,800 -840 Descending Seattle Center
06:27PM 47.6953 -115.5511 292° West 192 221 11,700 -1,140 Descending Seattle Center
06:28PM 47.7114 -115.6325 286° West 203 234 10,600 -1,080 Descending Seattle Center
06:29PM 47.7247 -115.7175 283° West 210 242 9,600 -840 Descending Seattle Center
06:30PM 47.7450 -115.8050 289° West 207 238 9,000 -300 Descending Seattle Center
06:31PM 47.7647 -115.8761 292° West 193 222 9,000  Level Seattle Center
06:32PM 47.7786 -115.9478 286° West 185 213 9,000  Level Seattle Center
06:33PM 47.7906 -116.0236 283° West 187 215 9,000  Level Seattle Center
06:34PM 47.8025 -116.0964 284° West 185 213 9,000  Level Seattle Center
06:35PM 47.8111 -116.1733 279° West 189 217 9,000  Level Seattle Center
06:36PM 47.8183 -116.2478 278° West 185 213 9,000  Level Seattle Center
06:37PM 47.8272 -116.3189 281° West 176 203 9,000 -240 Level Seattle Center
06:38PM 47.8317 -116.3892 275° West 174 200 8,600 -540 Descending Seattle Center
06:39PM 47.8325 -116.4678 271° West 190 219 7,900 -300 Descending Seattle Center
06:40PM 47.8275 -116.5400 264° West 180 207 8,000  Climbing Seattle Center
06:41PM 47.8183 -116.6172 260° West 159 183 7,900 -600 Descending Seattle Center
06:42PM 47.8106 -116.6925 261° West 175 201 6,800 -960 Descending Seattle Center
06:43PM 47.8036 -116.7633 262° West 182 209 6,000 -840 Descending Seattle Center
06:44PM 47.7964 -116.8367 262° West 180 207 5,200 -780 Descending Seattle Center
06:45PM 47.7586 -116.8558 199° South 180 207 4,500 -600 Descending Seattle Center
06:46PM 47.7519 -116.7906 99° East 177 204 4,100 -240 Descending Seattle Center
06:47PM 47.7881 -116.7508 36° Northeast 161 185 4,100 -360 Level Seattle Center
06:48PM 47.8042 -116.8008 296° West 166 191 3,400 -720 Descending Seattle Center